Airport ID:KSMD
Update Time (UTC):27/07/2021 00:02
Wind Speed (Knots):3
Wind Direction (Magnetic):330
Temperature (°C):28.4
Dew Point (°C):16.1
Humidity (%):47.6
Altimeter (inHg):30.03
Density Altitude (Feet):02700
Visibility (Miles):9
Clouds (Hundreds of feet):CLR
Present Weather:
METAR:METAR KSMD 270000Z AUTO 33003KT 9SM CLR 28/16 A3003 RMK A01

The data displayed is for advisory purposes only and is not to be used for flight planning or operations.